createdAt,value
2022-08-24T00:01:54.647Z,1016.26
2022-08-24T00:15:54.666Z,1016.19
2022-08-24T00:29:54.651Z,1016.07
2022-08-24T00:43:54.673Z,1015.97
2022-08-24T00:57:54.717Z,1015.94
2022-08-24T01:11:54.670Z,1015.97
2022-08-24T01:25:54.676Z,1015.89
2022-08-24T01:39:54.720Z,1015.92
2022-08-24T01:53:54.706Z,1016
2022-08-24T02:07:54.718Z,1016.09
2022-08-24T02:21:54.710Z,1016.09
2022-08-24T02:49:20.545Z,1016.23
2022-08-24T03:03:20.562Z,1016.32
2022-08-24T03:17:20.774Z,1016.23
2022-08-24T03:31:20.807Z,1016.18
2022-08-24T04:13:19.363Z,1016.08
2022-08-24T04:28:19.450Z,1016.2
2022-08-24T04:43:20.045Z,1016.38
2022-08-24T04:58:19.513Z,1016.48
2022-08-24T05:13:19.462Z,1016.59
2022-08-24T05:28:19.461Z,1016.72
2022-08-24T05:43:19.496Z,1016.83
2022-08-24T05:58:23.131Z,1016.82
2022-08-24T06:13:19.476Z,1016.85
2022-08-24T06:28:19.510Z,1016.89
2022-08-24T06:43:19.530Z,1016.85
2022-08-24T06:58:19.917Z,1016.9
2022-08-24T07:13:19.788Z,1017.04
2022-08-24T07:28:27.661Z,1017.03
2022-08-24T07:43:19.732Z,1017.04
2022-08-24T07:58:19.797Z,1017.22
2022-08-24T08:13:19.804Z,1017.3
2022-08-24T08:28:25.631Z,1017.28
2022-08-24T08:43:20.170Z,1017.15
2022-08-24T08:58:20.180Z,1017.11
2022-08-24T09:13:20.204Z,1017.06
2022-08-24T09:28:20.352Z,1016.96
2022-08-24T09:43:20.452Z,1016.86
2022-08-24T09:58:20.628Z,1016.66
2022-08-24T10:13:20.559Z,1016.62
2022-08-24T10:28:20.594Z,1016.5
2022-08-24T10:44:20.621Z,1016.4
2022-08-24T11:00:22.768Z,1016.36
2022-08-24T11:15:20.713Z,1016.35
2022-08-24T11:45:22.870Z,1016.18
2022-08-24T12:01:22.886Z,1016.1
2022-08-24T12:17:23.205Z,1015.95
2022-08-24T12:32:23.257Z,1015.87
2022-08-24T12:47:23.460Z,1015.78
2022-08-24T13:02:23.653Z,1015.78
2022-08-24T13:17:23.669Z,1015.59
2022-08-24T13:32:26.240Z,1015.58
2022-08-24T13:47:23.780Z,1015.62
2022-08-24T14:02:23.780Z,1015.74
2022-08-24T14:17:23.761Z,1015.73
2022-08-24T14:32:23.800Z,1015.6
2022-08-24T14:47:23.893Z,1015.62
2022-08-24T15:02:23.928Z,1015.49
2022-08-24T15:18:23.964Z,1015.47
2022-08-24T15:33:23.962Z,1015.46
2022-08-24T15:48:23.961Z,1015.48
2022-08-24T16:04:24.088Z,1015.58
2022-08-24T16:19:24.107Z,1015.43
2022-08-24T16:34:24.066Z,1015.52
2022-08-24T16:50:27.179Z,1015.44
2022-08-24T17:05:24.092Z,1015.46
2022-08-24T17:20:24.153Z,1015.63
2022-08-24T17:35:24.179Z,1015.73
2022-08-24T17:50:24.184Z,1015.85
2022-08-24T18:05:24.160Z,1015.97
2022-08-24T18:20:24.159Z,1016.07
2022-08-24T18:35:24.158Z,1016.22
2022-08-24T18:49:24.173Z,1016.27
2022-08-24T19:03:24.385Z,1016.35
2022-08-24T19:17:24.458Z,1016.62
2022-08-24T19:31:24.516Z,1016.61
2022-08-24T19:45:24.488Z,1016.57
2022-08-24T19:59:24.484Z,1016.6
2022-08-24T20:13:24.518Z,1016.65
2022-08-24T20:27:24.549Z,1016.76
2022-08-24T20:41:24.503Z,1016.73
2022-08-24T20:55:24.635Z,1016.83
2022-08-24T21:09:24.894Z,1016.83
2022-08-24T21:23:24.915Z,1016.9
2022-08-24T21:37:24.901Z,1016.93
2022-08-24T21:51:24.892Z,1016.93
2022-08-24T22:05:24.900Z,1016.94
2022-08-24T22:19:24.907Z,1016.78
2022-08-24T22:33:24.927Z,1016.66
2022-08-24T22:47:24.901Z,1016.73
2022-08-24T23:01:25.093Z,1016.64
2022-08-24T23:15:25.053Z,1016.68
2022-08-24T23:29:25.094Z,1016.58
2022-08-24T23:43:25.069Z,1016.51
2022-08-24T23:57:25.073Z,1016.34
